createdAt,value
2019-04-05T00:19:59.549Z,4.62
2019-04-05T00:30:11.127Z,3.97
2019-04-05T00:35:15.185Z,3.64
2019-04-05T00:40:19.167Z,3.35
2019-04-05T00:50:34.142Z,3.02
2019-04-05T00:55:38.169Z,2.97
2019-04-05T01:00:42.267Z,3.02
2019-04-05T01:05:46.477Z,3.08
2019-04-05T01:10:50.402Z,3.16
2019-04-05T01:15:54.347Z,3.11
2019-04-05T01:21:01.807Z,3.17
2019-04-05T01:26:06.411Z,3.24
2019-04-05T01:31:10.526Z,3.32
2019-04-05T01:36:14.441Z,3.35
2019-04-05T01:41:18.517Z,3.38
2019-04-05T01:46:22.496Z,3.23
2019-04-05T01:51:26.692Z,3.38
2019-04-05T01:56:30.666Z,3.25
2019-04-05T02:01:34.586Z,3.32
2019-04-05T02:06:38.656Z,3.40
2019-04-05T02:11:42.690Z,3.42
2019-04-05T02:16:46.812Z,3.38
2019-04-05T02:21:50.806Z,3.35
2019-04-05T02:26:54.723Z,3.16
2019-04-05T02:31:58.758Z,3.14
2019-04-05T02:37:02.667Z,3.23
2019-04-05T02:42:06.719Z,3.43
2019-04-05T02:47:10.621Z,3.77
2019-04-05T02:52:16.623Z,3.93
2019-04-05T02:57:20.703Z,4.15
2019-04-05T03:02:25.378Z,4.31
2019-04-05T03:07:29.457Z,4.53
2019-04-05T03:12:34.073Z,4.58
2019-04-05T03:17:38.118Z,4.70
2019-04-05T03:22:42.218Z,4.74
2019-04-05T03:27:46.273Z,4.86
2019-04-05T03:32:50.268Z,4.83
2019-04-05T03:37:54.158Z,4.96
2019-04-05T03:42:58.618Z,4.90
2019-04-05T03:48:02.740Z,4.71
2019-04-05T03:53:07.063Z,4.67
2019-04-05T03:58:11.184Z,4.78
2019-04-05T04:03:15.138Z,4.37
2019-04-05T04:08:23.020Z,3.85
2019-04-05T04:13:24.876Z,3.56
2019-04-05T04:18:28.858Z,3.62
2019-04-05T04:23:32.858Z,3.65
2019-04-05T04:28:36.940Z,3.51
2019-04-05T04:33:40.951Z,3.54
2019-04-05T04:38:45.789Z,3.12
2019-04-05T04:43:49.787Z,2.74
2019-04-05T04:48:54.245Z,2.59
2019-04-05T04:53:58.197Z,2.53
2019-04-05T04:59:02.255Z,2.74
2019-04-05T05:04:08.309Z,2.65
2019-04-05T05:09:12.072Z,2.88
2019-04-05T05:14:16.058Z,2.93
2019-04-05T05:19:20.078Z,3.06
2019-04-05T05:24:24.103Z,3.04
2019-04-05T05:29:28.422Z,3.07
2019-04-05T05:34:32.549Z,3.33
2019-04-05T05:39:36.442Z,3.58
2019-04-05T05:44:40.417Z,3.63
2019-04-05T05:49:44.291Z,3.65
2019-04-05T05:54:48.246Z,3.78
2019-04-05T05:59:52.298Z,3.96
2019-04-05T06:04:56.319Z,4.19
2019-04-05T06:10:00.381Z,4.33
2019-04-05T06:15:04.810Z,4.45
2019-04-05T06:20:09.007Z,4.54
2019-04-05T06:25:13.017Z,4.47
2019-04-05T06:30:17.141Z,4.47
2019-04-05T06:35:21.248Z,4.62
2019-04-05T06:40:25.226Z,4.88
2019-04-05T06:45:29.170Z,5.00
2019-04-05T06:50:33.403Z,5.04
2019-04-05T06:55:37.324Z,5.12
2019-04-05T07:00:46.024Z,5.18
2019-04-05T07:05:47.515Z,5.47
2019-04-05T07:10:51.546Z,5.83
2019-04-05T07:15:55.641Z,6.52
2019-04-05T07:20:59.681Z,6.64
2019-04-05T07:26:03.728Z,6.79
2019-04-05T07:31:07.612Z,6.94
2019-04-05T07:36:11.511Z,7.04
2019-04-05T07:41:15.361Z,7.26
2019-04-05T07:46:19.422Z,7.38
2019-04-05T07:51:23.357Z,7.54
2019-04-05T07:56:27.332Z,7.21
2019-04-05T08:01:31.366Z,7.10
2019-04-05T08:06:36.751Z,7.26
2019-04-05T08:11:43.329Z,7.53
2019-04-05T08:16:47.418Z,7.84
2019-04-05T08:21:51.371Z,7.77
2019-04-05T08:26:55.363Z,7.77
2019-04-05T08:33:05.326Z,8.24
2019-04-05T08:38:09.415Z,8.02
2019-04-05T08:43:13.436Z,8.16
2019-04-05T08:48:17.391Z,8.12
2019-04-05T08:53:21.380Z,7.98
2019-04-05T08:58:33.297Z,7.98
2019-04-05T09:03:31.017Z,7.82
2019-04-05T09:08:34.991Z,7.84
2019-04-05T09:13:40.181Z,7.91
2019-04-05T09:18:44.131Z,8.28
2019-04-05T09:23:48.177Z,8.24
2019-04-05T09:28:52.226Z,8.23
2019-04-05T09:33:56.294Z,8.15
2019-04-05T09:39:00.341Z,7.91
2019-04-05T09:44:04.361Z,7.93
2019-04-05T09:49:08.371Z,8.13
2019-04-05T09:54:12.250Z,8.65
2019-04-05T09:59:17.346Z,8.80
2019-04-05T10:04:21.407Z,8.83
2019-04-05T10:09:25.449Z,8.78
2019-04-05T10:14:29.512Z,8.63
2019-04-05T10:19:33.431Z,8.52
2019-04-05T10:24:37.381Z,8.48
2019-04-05T10:29:41.322Z,8.40
2019-04-05T10:34:46.725Z,8.21
2019-04-05T10:39:50.867Z,8.27
2019-04-05T10:44:56.522Z,8.48
2019-04-05T10:50:03.453Z,9.13
2019-04-05T10:55:06.856Z,9.20
2019-04-05T11:00:12.446Z,9.44
2019-04-05T11:05:16.741Z,9.81
2019-04-05T11:10:20.781Z,9.83
2019-04-05T11:15:24.830Z,10.00
2019-04-05T11:20:28.782Z,9.61
2019-04-05T11:25:32.757Z,9.21
2019-04-05T11:30:42.010Z,9.46
2019-04-05T11:35:45.966Z,10.43
2019-04-05T11:40:51.657Z,10.70
2019-04-05T11:45:56.122Z,10.30
2019-04-05T11:51:03.171Z,10.23
2019-04-05T11:56:14.417Z,9.96
2019-04-05T12:01:12.803Z,9.49
2019-04-05T12:06:16.790Z,9.49
2019-04-05T12:11:23.786Z,9.73
2019-04-05T12:16:27.963Z,9.39
2019-04-05T12:21:32.597Z,9.38
2019-04-05T12:26:38.370Z,8.93
2019-04-05T12:31:42.791Z,8.86
2019-04-05T12:36:46.863Z,8.67
2019-04-05T12:41:50.831Z,8.64
2019-04-05T12:46:54.806Z,7.69
2019-04-05T13:07:38.864Z,8.15
2019-04-05T13:12:42.981Z,8.14
2019-04-05T13:17:47.218Z,8.70
2019-04-05T13:22:52.683Z,9.32
2019-04-05T13:27:58.224Z,9.22
2019-04-05T13:33:02.299Z,9.43
2019-04-05T13:38:06.603Z,9.47
2019-04-05T13:43:10.717Z,9.59
2019-04-05T13:48:14.675Z,9.56
2019-04-05T13:53:18.684Z,9.60
2019-04-05T13:58:22.643Z,9.78
2019-04-05T14:03:26.714Z,9.88
2019-04-05T14:08:30.843Z,9.18
2019-04-05T14:13:34.843Z,9.79
2019-04-05T14:18:40.395Z,9.65
2019-04-05T14:23:44.524Z,9.54
2019-04-05T14:28:52.852Z,9.37
2019-04-05T14:33:55.979Z,9.03
2019-04-05T14:39:00.061Z,8.83
2019-04-05T14:44:06.457Z,8.62
2019-04-05T14:49:14.208Z,8.82
2019-04-05T14:54:18.277Z,8.71
2019-04-05T14:59:22.677Z,8.91
2019-04-05T15:04:29.243Z,9.23
2019-04-05T15:09:34.197Z,9.39
2019-04-05T15:14:38.338Z,9.40
2019-04-05T15:19:42.657Z,9.51
2019-04-05T15:24:47.238Z,9.63
2019-04-05T15:29:55.337Z,9.82
2019-04-05T15:34:59.030Z,9.90
2019-04-05T15:40:04.450Z,10.15
2019-04-05T15:45:09.344Z,9.99
2019-04-05T15:50:13.597Z,9.68
2019-04-05T15:55:20.316Z,9.44
2019-04-05T16:00:40.203Z,9.27
2019-04-05T16:05:44.535Z,9.25
2019-04-05T16:10:48.803Z,9.21
2019-04-05T16:15:52.804Z,9.12
2019-04-05T16:20:56.865Z,9.00
2019-04-05T16:26:01.141Z,8.97
2019-04-05T16:31:05.360Z,8.92
2019-04-05T16:36:09.438Z,9.00
2019-04-05T16:41:13.497Z,8.83
2019-04-05T16:46:17.503Z,8.89
2019-04-05T16:51:21.682Z,8.66
2019-04-05T16:56:28.043Z,8.51
2019-04-05T17:01:32.054Z,8.48
2019-04-05T17:06:36.183Z,8.47
2019-04-05T17:11:40.383Z,8.43
2019-04-05T17:16:44.426Z,8.45
2019-04-05T17:21:48.617Z,8.50
2019-04-05T17:26:52.639Z,8.51
2019-04-05T17:31:56.683Z,8.16
2019-04-05T17:37:02.456Z,8.19
2019-04-05T17:42:08.277Z,8.15
2019-04-05T17:47:12.285Z,7.97
2019-04-05T17:52:16.317Z,7.96
2019-04-05T17:57:20.544Z,8.15
2019-04-05T18:02:24.723Z,8.15
2019-04-05T18:07:28.818Z,8.28
2019-04-05T18:12:32.865Z,7.89
2019-04-05T18:17:36.883Z,7.78
2019-04-05T18:22:43.584Z,7.70
2019-04-05T18:27:47.739Z,7.64
2019-04-05T18:32:51.943Z,7.57
2019-04-05T18:37:57.011Z,7.51
2019-04-05T18:43:01.042Z,7.41
2019-04-05T18:48:08.141Z,7.31
2019-04-05T18:53:12.379Z,7.25
2019-04-05T18:58:16.443Z,7.19
2019-04-05T19:03:20.409Z,7.22
2019-04-05T19:08:24.367Z,7.16
2019-04-05T19:13:29.363Z,7.09
2019-04-05T19:18:33.534Z,6.93
2019-04-05T19:23:49.868Z,6.72
2019-04-05T19:28:43.412Z,6.46
2019-04-05T19:49:04.718Z,6.23
2019-04-05T19:54:08.783Z,6.31
2019-04-05T19:59:12.763Z,6.35
2019-04-05T20:04:19.824Z,6.46
2019-04-05T20:09:23.970Z,6.46
2019-04-05T20:14:28.163Z,6.43
2019-04-05T20:19:32.217Z,6.42
2019-04-05T20:24:36.317Z,6.48
2019-04-05T20:29:40.323Z,6.63
2019-04-05T20:34:44.391Z,6.69
2019-04-05T20:39:48.689Z,6.97
2019-04-05T20:44:52.879Z,7.02
2019-04-05T20:49:56.895Z,6.97
2019-04-05T20:55:02.144Z,6.73
2019-04-05T21:00:06.523Z,6.87
2019-04-05T21:05:10.703Z,7.02
2019-04-05T21:10:16.302Z,7.14
2019-04-05T21:15:20.443Z,6.94
2019-04-05T21:20:24.462Z,6.89
2019-04-05T21:25:28.599Z,6.76
2019-04-05T21:30:32.766Z,6.63
2019-04-05T21:35:38.257Z,6.56
2019-04-05T21:40:42.309Z,6.45
2019-04-05T21:45:46.358Z,6.35
2019-04-05T21:50:50.383Z,6.30
2019-04-05T21:55:54.398Z,6.44
2019-04-05T22:01:00.858Z,6.51
2019-04-05T22:06:05.583Z,6.59
2019-04-05T22:11:09.703Z,6.57
2019-04-05T22:16:14.736Z,6.51
2019-04-05T22:21:18.864Z,6.54
2019-04-05T22:26:22.889Z,6.55
2019-04-05T22:31:27.149Z,6.60
2019-04-05T22:36:31.137Z,6.58
2019-04-05T22:41:35.111Z,6.62
2019-04-05T22:46:39.054Z,6.42
2019-04-05T22:51:43.105Z,6.72
